Time;durP1;ratioP1;P1;durP2;ratioP2;P2;SDS_P1;SDS_P2;PMS_P1;PMS_P2;Temp;Humidity;BMP_temperature;BMP_pressure;BME280_temperature;BME280_humidity;BME280_pressure;Samples;Min_cycle;Max_cycle;Signal;HPM_P1;HPM_P2
2024/01/23 00:00:09;;;;;;;10.88;4.18;;;;;;;1.43;84.86;101595.63;5071010;28;20036;-65
2024/01/23 00:02:35;;;;;;;10.57;3.90;;;;;;;1.35;85.50;101600.22;5068298;28;20040;-65
2024/01/23 00:05:00;;;;;;;11.45;3.97;;;;;;;1.28;86.02;101589.34;5068013;28;20024;-66
2024/01/23 00:07:25;;;;;;;15.00;4.32;;;;;;;1.19;86.35;101586.28;5068577;28;20042;-66
2024/01/23 00:09:51;;;;;;;7.95;3.88;;;;;;;1.17;87.08;101582.94;5063682;28;20497;-65
2024/01/23 00:12:16;;;;;;;10.15;4.38;;;;;;;1.24;86.84;101598.06;5066339;28;20135;-66
2024/01/23 00:14:42;;;;;;;11.75;3.80;;;;;;;1.20;87.04;101603.38;5068184;28;20429;-66
2024/01/23 00:17:08;;;;;;;7.72;3.22;;;;;;;1.21;87.05;101605.03;5067018;28;20028;-65
2024/01/23 00:19:33;;;;;;;10.00;3.70;;;;;;;1.20;87.12;101608.50;5069806;28;20090;-66
2024/01/23 00:21:58;;;;;;;7.40;3.20;;;;;;;1.23;87.17;101603.25;5063968;28;20120;-66
2024/01/23 00:24:24;;;;;;;6.38;3.22;;;;;;;1.21;87.15;101610.19;5060139;28;20063;-65
2024/01/23 00:26:49;;;;;;;9.85;3.17;;;;;;;1.16;86.67;101612.91;5061578;28;20043;-66
2024/01/23 00:29:15;;;;;;;7.75;3.03;;;;;;;1.18;87.03;101618.81;5066125;28;20044;-65
2024/01/23 00:31:41;;;;;;;14.57;3.67;;;;;;;1.15;86.94;101620.66;5066598;28;20106;-65
2024/01/23 00:34:07;;;;;;;7.65;3.13;;;;;;;1.11;87.61;101626.81;5067628;28;20032;-65
2024/01/23 00:36:32;;;;;;;8.88;4.50;;;;;;;1.04;87.42;101622.78;5064732;28;20052;-66
2024/01/23 00:38:58;;;;;;;10.50;4.80;;;;;;;0.99;88.05;101617.81;5056653;28;21670;-65
2024/01/23 00:41:23;;;;;;;8.73;3.90;;;;;;;1.05;88.22;101622.72;5063061;28;20047;-66
2024/01/23 00:43:48;;;;;;;12.80;3.85;;;;;;;1.12;87.26;101636.19;5062392;28;20036;-66
2024/01/23 00:46:15;;;;;;;9.55;3.47;;;;;;;1.39;86.19;101635.19;5065597;28;20133;-66
2024/01/23 00:48:40;;;;;;;5.55;2.58;;;;;;;1.54;84.79;101639.72;5066185;28;20427;-66
2024/01/23 00:51:06;;;;;;;8.20;2.90;;;;;;;1.74;82.86;101638.13;5068663;28;20024;-66
2024/01/23 00:53:31;;;;;;;7.15;2.85;;;;;;;1.91;81.22;101640.84;5066710;28;20533;-66
2024/01/23 00:55:58;;;;;;;9.45;3.10;;;;;;;1.99;80.45;101641.38;5065478;28;20040;-65
2024/01/23 00:58:24;;;;;;;5.97;2.80;;;;;;;2.04;80.86;101636.88;5065702;28;20028;-66
2024/01/23 01:00:50;;;;;;;5.25;2.97;;;;;;;1.77;82.00;101636.25;5070139;28;20040;-66
2024/01/23 01:03:15;;;;;;;5.65;2.30;;;;;;;1.72;82.65;101643.31;5065837;28;20402;-65
2024/01/23 01:05:41;;;;;;;6.32;3.40;;;;;;;1.82;81.88;101639.50;5064659;28;20398;-66
2024/01/23 01:08:07;;;;;;;7.80;2.72;;;;;;;1.88;81.54;101641.81;5063878;28;20033;-66
2024/01/23 01:10:33;;;;;;;6.95;3.40;;;;;;;1.89;81.87;101643.47;5065159;28;20081;-65
2024/01/23 01:12:58;;;;;;;8.07;3.47;;;;;;;1.75;82.96;101643.19;5066778;28;20098;-65
2024/01/23 01:15:24;;;;;;;12.55;3.75;;;;;;;1.55;83.58;101646.53;5064230;28;20551;-66
2024/01/23 01:17:49;;;;;;;12.95;4.97;;;;;;;1.26;84.39;101646.78;5065678;28;20021;-65
2024/01/23 01:20:15;;;;;;;13.93;6.28;;;;;;;1.17;85.94;101649.69;5065128;28;20020;-66
2024/01/23 01:22:41;;;;;;;16.60;5.65;;;;;;;1.15;86.64;101659.16;5064375;28;20491;-66
2024/01/23 01:25:08;;;;;;;13.77;6.05;;;;;;;0.92;86.53;101658.28;5065030;28;20046;-65
2024/01/23 01:27:34;;;;;;;12.95;6.10;;;;;;;0.71;87.84;101661.59;5063141;28;21620;-65
2024/01/23 01:29:59;;;;;;;17.92;7.13;;;;;;;0.64;88.94;101663.50;5069123;28;20045;-66
2024/01/23 01:32:25;;;;;;;17.80;7.28;;;;;;;0.57;89.54;101668.91;5065987;28;20036;-66
2024/01/23 01:34:50;;;;;;;12.30;6.05;;;;;;;0.49;90.00;101669.16;5065952;28;20040;-66
2024/01/23 01:37:16;;;;;;;17.45;6.35;;;;;;;0.49;91.18;101679.41;5064513;28;20119;-66
2024/01/23 01:39:41;;;;;;;19.40;7.85;;;;;;;0.56;91.15;101673.19;5063799;28;20040;-66
2024/01/23 01:42:07;;;;;;;12.07;6.18;;;;;;;0.70;90.42;101674.47;5068388;28;20029;-66
2024/01/23 01:44:33;;;;;;;10.00;5.32;;;;;;;0.80;89.26;101668.97;5062632;28;20032;-66
2024/01/23 01:46:59;;;;;;;11.43;4.72;;;;;;;0.93;87.91;101659.13;5065149;28;20051;-66
2024/01/23 01:49:26;;;;;;;11.32;3.20;;;;;;;1.18;86.80;101652.19;5066960;28;20506;-65
2024/01/23 01:51:52;;;;;;;8.68;3.00;;;;;;;1.32;85.73;101638.84;5070670;28;20029;-66
2024/01/23 01:54:20;;;;;;;9.02;3.40;;;;;;;1.33;86.00;101632.84;5074355;28;20047;-66
2024/01/23 01:56:46;;;;;;;9.90;3.22;;;;;;;1.04;85.66;101630.47;5063370;28;20604;-66
2024/01/23 01:59:12;;;;;;;11.13;4.03;;;;;;;0.76;87.76;101635.78;5066919;28;20135;-66
2024/01/23 02:01:39;;;;;;;11.68;4.32;;;;;;;0.61;88.59;101642.25;5060803;28;20032;-66
2024/01/23 02:04:04;;;;;;;10.35;4.10;;;;;;;0.35;89.24;101642.31;5061811;28;20055;-65
2024/01/23 02:06:32;;;;;;;9.98;3.85;;;;;;;0.22;91.20;101645.28;5066709;28;20033;-66
2024/01/23 02:08:57;;;;;;;14.55;4.85;;;;;;;0.24;92.48;101634.97;5066634;28;20094;-66
2024/01/23 02:11:23;;;;;;;11.05;4.80;;;;;;;0.14;91.86;101646.41;5062578;28;20377;-65
2024/01/23 02:13:49;;;;;;;12.05;4.85;;;;;;;-0.02;92.94;101633.28;5064314;28;20393;-66
2024/01/23 02:16:14;;;;;;;12.02;4.78;;;;;;;-0.10;93.67;101642.91;5060102;28;20029;-66
2024/01/23 02:18:40;;;;;;;9.95;5.32;;;;;;;-0.23;93.79;101645.00;5063533;28;20450;-66
2024/01/23 02:21:08;;;;;;;12.32;4.80;;;;;;;-0.35;95.09;101651.34;5061869;28;20028;-65
2024/01/23 02:23:33;;;;;;;15.93;5.80;;;;;;;-0.44;95.72;101653.31;5058224;28;20041;-66
2024/01/23 02:25:59;;;;;;;11.00;5.43;;;;;;;-0.56;96.27;101652.00;5063725;28;20040;-65
2024/01/23 02:28:24;;;;;;;10.70;4.93;;;;;;;-0.60;97.39;101635.03;5063640;28;20529;-65
2024/01/23 02:30:50;;;;;;;11.93;5.30;;;;;;;-0.68;97.72;101642.94;5067573;28;20389;-66
2024/01/23 02:33:15;;;;;;;20.95;6.05;;;;;;;-0.73;98.57;101641.41;5064772;28;21047;-66
2024/01/23 02:35:41;;;;;;;11.30;5.72;;;;;;;-0.80;100.00;101642.44;5064554;28;20058;-66
2024/01/23 02:38:08;;;;;;;15.50;6.30;;;;;;;-0.79;100.00;101657.75;5067096;28;20047;-66
2024/01/23 02:40:34;;;;;;;11.43;5.40;;;;;;;-0.54;100.00;101645.09;5067439;28;20095;-66
2024/01/23 02:43:00;;;;;;;8.45;4.00;;;;;;;-0.05;100.00;101643.63;5064697;28;20589;-65
2024/01/23 02:45:25;;;;;;;9.27;3.30;;;;;;;0.15;97.14;101641.22;5058301;28;20048;-65
2024/01/23 02:47:51;;;;;;;6.38;2.65;;;;;;;0.38;94.92;101649.91;5066465;28;20462;-65
2024/01/23 02:50:17;;;;;;;5.72;2.50;;;;;;;0.47;93.55;101652.16;5068778;28;20055;-65
2024/01/23 02:52:42;;;;;;;7.25;2.38;;;;;;;0.66;91.41;101656.59;5067011;28;20044;-65
2024/01/23 02:55:08;;;;;;;4.70;2.10;;;;;;;0.79;90.26;101654.47;5065043;28;20040;-65
2024/01/23 02:57:34;;;;;;;7.80;2.13;;;;;;;1.03;87.56;101647.59;5067146;28;20040;-66
2024/01/23 02:59:59;;;;;;;6.05;1.55;;;;;;;1.10;86.91;101646.50;5073258;28;20040;-66
2024/01/23 03:02:25;;;;;;;5.13;1.75;;;;;;;1.16;86.76;101648.00;5065325;28;20039;-66
2024/01/23 03:04:50;;;;;;;6.13;2.20;;;;;;;1.12;86.27;101641.31;5069790;28;20032;-65
2024/01/23 03:07:17;;;;;;;5.32;2.38;;;;;;;1.12;86.58;101616.47;5071561;28;20516;-66
2024/01/23 03:09:42;;;;;;;6.53;1.95;;;;;;;1.11;86.63;101613.97;5067944;28;20032;-66
2024/01/23 03:12:18;;;;;;;4.63;1.85;;;;;;;1.18;86.69;101623.13;5068376;28;20184;-66
2024/01/23 03:14:44;;;;;;;2.97;1.52;;;;;;;1.31;86.47;101637.19;5068396;28;20107;-66
2024/01/23 03:17:11;;;;;;;5.53;2.20;;;;;;;1.35;86.61;101632.78;5068899;28;20062;-66
2024/01/23 03:19:36;;;;;;;6.20;2.25;;;;;;;1.35;86.19;101646.44;5069660;28;20085;-66
2024/01/23 03:22:02;;;;;;;4.65;2.20;;;;;;;1.37;86.32;101659.22;5065696;28;20035;-66
2024/01/23 03:24:28;;;;;;;5.25;2.13;;;;;;;1.35;86.51;101669.56;5067601;28;20398;-66
2024/01/23 03:26:54;;;;;;;7.05;2.33;;;;;;;1.37;86.45;101661.81;5069204;28;20024;-65
2024/01/23 03:29:19;;;;;;;5.20;1.45;;;;;;;1.37;85.84;101654.94;5066250;28;20119;-66
2024/01/23 03:31:44;;;;;;;5.30;1.95;;;;;;;1.33;86.13;101653.38;5066727;28;20054;-66
2024/01/23 03:34:10;;;;;;;7.15;2.17;;;;;;;1.32;86.24;101655.09;5063132;28;20033;-65
2024/01/23 03:36:35;;;;;;;5.13;2.33;;;;;;;1.36;85.54;101655.00;5063259;28;20041;-66
2024/01/23 03:39:01;;;;;;;6.28;2.38;;;;;;;1.35;85.07;101654.16;5067712;28;20389;-65
2024/01/23 03:41:26;;;;;;;6.32;1.75;;;;;;;1.30;84.71;101661.19;5067318;28;20033;-65
2024/01/23 03:43:52;;;;;;;6.25;1.83;;;;;;;1.23;85.69;101652.03;5072672;28;20067;-66
2024/01/23 03:46:17;;;;;;;7.25;2.55;;;;;;;1.19;86.32;101651.31;5065819;28;20032;-66
2024/01/23 03:48:43;;;;;;;4.40;1.73;;;;;;;1.15;86.09;101651.47;5064894;28;20033;-65
2024/01/23 03:51:08;;;;;;;6.60;2.38;;;;;;;1.12;86.43;101654.16;5066539;28;20478;-65
2024/01/23 03:53:33;;;;;;;6.53;1.75;;;;;;;1.12;86.36;101652.41;5068225;28;20048;-66
2024/01/23 03:55:59;;;;;;;3.22;1.60;;;;;;;1.13;86.60;101653.25;5068723;28;20032;-66
2024/01/23 03:58:24;;;;;;;5.05;2.33;;;;;;;1.12;86.59;101656.72;5067147;28;20032;-65
2024/01/23 04:00:50;;;;;;;3.85;1.70;;;;;;;1.15;86.85;101654.88;5064244;28;20124;-65
2024/01/23 04:03:15;;;;;;;4.82;1.95;;;;;;;1.16;86.41;101645.44;5063829;28;20046;-66
2024/01/23 04:05:41;;;;;;;5.45;2.13;;;;;;;1.13;86.65;101648.13;5068870;28;20119;-65
2024/01/23 04:08:06;;;;;;;5.00;2.55;;;;;;;1.13;86.02;101658.38;5068264;28;20108;-65
2024/01/23 04:10:32;;;;;;;5.60;1.63;;;;;;;1.16;86.02;101665.97;5068035;28;20040;-68
2024/01/23 04:12:57;;;;;;;4.90;1.83;;;;;;;1.13;86.07;101673.78;5067796;28;20054;-66
2024/01/23 04:15:23;;;;;;;6.38;2.03;;;;;;;1.07;86.25;101669.72;5067429;28;20474;-65
2024/01/23 04:17:48;;;;;;;6.43;2.60;;;;;;;1.10;86.01;101677.31;5068611;28;20024;-65
2024/01/23 04:20:15;;;;;;;6.63;2.38;;;;;;;1.11;86.05;101667.88;5065525;28;20094;-65
2024/01/23 04:22:41;;;;;;;3.60;1.52;;;;;;;1.04;86.35;101669.81;5064748;28;20501;-65
2024/01/23 04:25:07;;;;;;;5.05;1.45;;;;;;;1.07;85.98;101671.44;5066990;28;20111;-65
2024/01/23 04:27:32;;;;;;;3.72;1.52;;;;;;;1.07;85.54;101656.03;5064721;28;20079;-65
2024/01/23 04:29:58;;;;;;;5.88;2.03;;;;;;;1.04;85.64;101663.84;5066886;28;20035;-65
2024/01/23 04:32:23;;;;;;;3.38;1.40;;;;;;;1.09;85.36;101662.78;5066368;28;20051;-66
2024/01/23 04:34:48;;;;;;;5.88;1.60;;;;;;;1.12;85.75;101651.56;5065456;28;20094;-65
2024/01/23 04:37:14;;;;;;;4.50;1.98;;;;;;;1.04;86.48;101664.69;5064409;28;20121;-65
2024/01/23 04:39:39;;;;;;;9.68;2.72;;;;;;;0.89;87.15;101670.38;5065447;28;20036;-66
2024/01/23 04:42:05;;;;;;;3.00;1.60;;;;;;;0.94;86.75;101679.59;5067026;28;20060;-66
2024/01/23 04:44:30;;;;;;;4.72;1.98;;;;;;;1.04;85.66;101679.25;5061615;28;20032;-65
2024/01/23 04:46:56;;;;;;;4.43;1.50;;;;;;;1.04;85.49;101684.38;5067300;28;20024;-65
2024/01/23 04:49:21;;;;;;;4.00;1.65;;;;;;;1.02;85.48;101691.28;5068226;28;20074;-65
2024/01/23 04:51:47;;;;;;;4.40;1.48;;;;;;;1.02;85.19;101691.28;5068102;28;20085;-66
2024/01/23 04:54:12;;;;;;;4.18;1.60;;;;;;;1.03;85.05;101698.94;5068292;28;20484;-66
2024/01/23 04:56:38;;;;;;;3.05;1.25;;;;;;;0.92;85.32;101706.19;5066614;28;20415;-65
2024/01/23 04:59:03;;;;;;;2.60;1.35;;;;;;;0.96;85.42;101708.56;5066546;28;20035;-66
2024/01/23 05:01:29;;;;;;;4.35;1.25;;;;;;;0.98;85.13;101706.78;5066294;28;20032;-65
2024/01/23 05:03:54;;;;;;;3.05;1.58;;;;;;;0.95;85.47;101698.38;5066710;28;20025;-66
2024/01/23 05:06:20;;;;;;;3.70;1.45;;;;;;;0.96;85.12;101692.34;5064678;28;20036;-66
2024/01/23 05:08:46;;;;;;;3.88;1.48;;;;;;;0.90;84.72;101698.56;5066940;28;20035;-65
2024/01/23 05:11:11;;;;;;;3.92;1.70;;;;;;;0.87;84.91;101703.78;5063256;28;20040;-67
2024/01/23 05:13:36;;;;;;;9.90;1.80;;;;;;;0.87;84.98;101696.09;5066145;28;20029;-67
2024/01/23 05:16:02;;;;;;;5.80;2.05;;;;;;;0.91;84.78;101692.53;5064350;28;20040;-66
2024/01/23 05:18:28;;;;;;;3.03;1.45;;;;;;;0.89;84.72;101681.47;5063482;28;20403;-67
2024/01/23 05:20:54;;;;;;;8.60;1.40;;;;;;;0.87;84.78;101673.00;5065673;28;20089;-66
2024/01/23 05:23:20;;;;;;;5.45;1.90;;;;;;;0.83;84.77;101684.25;5060501;28;20033;-67
2024/01/23 05:25:45;;;;;;;2.25;1.13;;;;;;;0.87;84.75;101693.53;5068208;28;20430;-67
2024/01/23 05:28:12;;;;;;;3.53;1.38;;;;;;;0.96;84.13;101693.19;5066581;28;20101;-67
2024/01/23 05:30:37;;;;;;;5.35;1.35;;;;;;;1.01;83.86;101703.28;5066110;28;20032;-67
2024/01/23 05:33:03;;;;;;;4.40;1.55;;;;;;;1.00;83.67;101694.75;5063995;28;20028;-67
2024/01/23 05:35:29;;;;;;;2.30;1.52;;;;;;;0.99;83.53;101693.06;5061380;28;20045;-66
2024/01/23 05:37:54;;;;;;;3.58;1.65;;;;;;;0.99;83.98;101689.66;5067141;28;20101;-67
2024/01/23 05:40:19;;;;;;;4.25;1.30;;;;;;;1.00;83.58;101707.59;5066311;28;20028;-66
2024/01/23 05:42:45;;;;;;;3.95;1.25;;;;;;;0.98;83.42;101709.38;5065038;28;20020;-66
2024/01/23 05:45:10;;;;;;;3.63;1.25;;;;;;;0.94;83.31;101705.25;5063233;28;20043;-66
2024/01/23 05:47:36;;;;;;;5.38;1.50;;;;;;;0.88;83.48;101705.47;5061916;28;20041;-66
2024/01/23 05:50:02;;;;;;;3.35;1.42;;;;;;;0.81;83.33;101718.56;5069020;28;20029;-66
2024/01/23 05:52:27;;;;;;;10.35;1.80;;;;;;;0.83;83.44;101706.50;5063795;28;20086;-66
2024/01/23 05:54:53;;;;;;;4.80;1.35;;;;;;;0.77;83.33;101710.13;5066106;28;20119;-66
2024/01/23 05:57:18;;;;;;;5.13;1.83;;;;;;;0.73;83.77;101703.41;5064087;28;20547;-67
2024/01/23 05:59:44;;;;;;;5.13;1.60;;;;;;;0.71;84.26;101710.31;5065527;28;20040;-67
2024/01/23 06:02:09;;;;;;;6.55;1.45;;;;;;;0.68;84.06;101718.13;5066330;28;20074;-66
2024/01/23 06:04:35;;;;;;;6.55;1.35;;;;;;;0.66;84.01;101725.03;5069275;28;20029;-66
2024/01/23 06:07:00;;;;;;;4.43;1.75;;;;;;;0.66;84.42;101733.56;5068310;28;20032;-67
2024/01/23 06:09:26;;;;;;;3.20;1.60;;;;;;;0.67;84.36;101747.22;5070182;28;20097;-67
2024/01/23 06:11:52;;;;;;;4.68;1.20;;;;;;;0.71;84.68;101758.22;5068221;28;20046;-67
2024/01/23 06:14:18;;;;;;;3.42;1.17;;;;;;;0.71;84.11;101756.50;5069673;28;20033;-67
2024/01/23 06:16:44;;;;;;;9.60;1.90;;;;;;;0.67;84.22;101754.91;5070744;28;20036;-67
2024/01/23 06:19:10;;;;;;;5.32;1.52;;;;;;;0.70;84.15;101752.25;5069747;28;20037;-66
2024/01/23 06:21:35;;;;;;;4.15;0.98;;;;;;;0.69;83.64;101749.72;5070236;28;20027;-67
2024/01/23 06:24:01;;;;;;;3.80;1.50;;;;;;;0.63;83.93;101759.31;5071035;28;20113;-67
2024/01/23 06:26:26;;;;;;;4.05;1.23;;;;;;;0.62;83.56;101759.34;5070594;28;20051;-66
2024/01/23 06:28:52;;;;;;;4.22;1.50;;;;;;;0.65;83.80;101760.09;5071122;28;20036;-66
2024/01/23 06:31:25;;;;;;;4.47;1.52;;;;;;;0.72;82.75;101762.47;5070504;28;20456;-66
2024/01/23 06:33:50;;;;;;;3.22;1.52;;;;;;;0.70;82.76;101771.94;5068757;28;20036;-66
2024/01/23 06:36:16;;;;;;;4.28;1.10;;;;;;;0.64;83.43;101762.72;5070668;28;20051;-66
2024/01/23 06:38:41;;;;;;;7.72;1.40;;;;;;;0.60;83.68;101777.34;5069650;28;20041;-66
2024/01/23 06:41:07;;;;;;;14.98;1.92;;;;;;;0.68;83.21;101784.81;5070360;28;20024;-66
2024/01/23 06:43:32;;;;;;;3.67;1.25;;;;;;;0.72;82.70;101785.56;5069642;28;20048;-66
2024/01/23 06:45:59;;;;;;;3.38;1.27;;;;;;;0.83;82.39;101788.63;5069678;28;20052;-66
2024/01/23 06:48:24;;;;;;;4.25;1.30;;;;;;;0.91;81.48;101786.63;5069925;28;20074;-66
2024/01/23 06:50:50;;;;;;;6.43;1.60;;;;;;;0.93;81.78;101790.84;5070542;28;20417;-66
2024/01/23 06:53:15;;;;;;;3.17;1.30;;;;;;;0.98;81.79;101799.19;5070948;28;20036;-66
2024/01/23 06:55:41;;;;;;;5.82;1.13;;;;;;;1.06;81.13;101808.38;5070077;28;20039;-66
2024/01/23 06:58:06;;;;;;;3.30;1.10;;;;;;;1.09;80.99;101806.53;5070745;28;20385;-66
2024/01/23 07:00:33;;;;;;;7.22;1.48;;;;;;;1.14;81.18;101821.78;5068963;28;20032;-66
2024/01/23 07:02:59;;;;;;;3.75;1.05;;;;;;;1.23;80.97;101816.34;5070495;28;20041;-66
2024/01/23 07:05:24;;;;;;;9.18;1.73;;;;;;;1.32;80.56;101828.88;5070789;28;20040;-66
2024/01/23 07:07:50;;;;;;;4.13;1.45;;;;;;;1.41;79.87;101823.44;5069564;28;20037;-66
2024/01/23 07:10:15;;;;;;;3.80;1.65;;;;;;;1.45;80.31;101829.28;5070972;28;20036;-66
2024/01/23 07:12:40;;;;;;;4.47;1.40;;;;;;;1.46;80.00;101824.06;5069014;28;20040;-66
2024/01/23 07:15:06;;;;;;;8.43;1.38;;;;;;;1.48;79.60;101818.88;5070339;28;20119;-66
2024/01/23 07:17:31;;;;;;;3.53;1.17;;;;;;;1.47;79.32;101838.59;5069452;28;20025;-66
2024/01/23 07:19:58;;;;;;;4.70;1.67;;;;;;;1.44;79.67;101835.28;5070553;28;20123;-65
2024/01/23 07:22:24;;;;;;;3.65;1.48;;;;;;;1.44;80.00;101845.56;5069713;28;20040;-66
2024/01/23 07:24:50;;;;;;;12.85;1.65;;;;;;;1.49;79.86;101856.53;5067875;28;20086;-66
2024/01/23 07:27:15;;;;;;;7.30;1.90;;;;;;;1.55;79.61;101858.88;5070271;28;20119;-66
2024/01/23 07:29:41;;;;;;;4.40;1.15;;;;;;;1.61;79.42;101863.81;5069802;28;20182;-66
2024/01/23 07:32:06;;;;;;;3.47;1.27;;;;;;;1.71;79.05;101864.34;5070580;28;20024;-66
2024/01/23 07:34:32;;;;;;;3.45;1.38;;;;;;;1.79;78.83;101873.47;5069740;28;20367;-66
2024/01/23 07:36:57;;;;;;;6.72;1.60;;;;;;;1.76;78.67;101868.44;5070159;28;20080;-66
2024/01/23 07:39:23;;;;;;;5.03;1.45;;;;;;;1.70;78.64;101870.38;5070192;28;20028;-66
2024/01/23 07:41:49;;;;;;;8.13;1.63;;;;;;;1.69;78.29;101871.25;5069617;28;20040;-66
2024/01/23 07:44:14;;;;;;;10.90;1.77;;;;;;;1.67;78.46;101866.19;5069588;28;20063;-66
2024/01/23 07:46:40;;;;;;;7.53;1.10;;;;;;;1.69;78.85;101878.97;5068248;28;20036;-66
2024/01/23 07:49:05;;;;;;;4.45;1.10;;;;;;;1.72;78.17;101881.44;5068730;28;20032;-66
2024/01/23 07:51:50;;;;;;;6.18;1.15;;;;;;;1.72;77.87;101884.00;5068386;28;20029;-66
2024/01/23 07:54:17;;;;;;;9.25;1.38;;;;;;;1.77;77.44;101888.09;5067645;28;20405;-65
2024/01/23 07:56:42;;;;;;;3.65;1.73;;;;;;;1.82;77.79;101890.50;5068072;28;20547;-66
2024/01/23 07:59:08;;;;;;;3.33;1.02;;;;;;;1.87;77.25;101889.44;5068678;28;20052;-66
2024/01/23 08:01:33;;;;;;;3.03;1.23;;;;;;;1.90;77.32;101902.16;5068321;28;20032;-66
2024/01/23 08:03:59;;;;;;;4.35;1.30;;;;;;;1.87;76.85;101897.16;5069295;28;20175;-67
2024/01/23 08:06:24;;;;;;;3.90;1.08;;;;;;;1.86;77.08;101908.34;5068694;28;20477;-66
2024/01/23 08:08:51;;;;;;;3.78;1.05;;;;;;;1.85;76.38;101905.81;5068661;28;20048;-66
2024/01/23 08:11:17;;;;;;;7.25;1.25;;;;;;;1.84;76.20;101899.84;5067144;28;20036;-66
2024/01/23 08:13:42;;;;;;;2.85;0.93;;;;;;;1.98;76.25;101907.03;5066096;28;20033;-66
2024/01/23 08:16:09;;;;;;;3.55;1.45;;;;;;;2.04;76.04;101917.09;5068540;28;20033;-66
2024/01/23 08:18:36;;;;;;;2.05;1.17;;;;;;;2.11;77.08;101912.59;5068367;28;20017;-66
2024/01/23 08:21:02;;;;;;;2.10;1.10;;;;;;;2.23;78.16;101910.41;5068244;28;20032;-66
2024/01/23 08:23:27;;;;;;;3.35;1.30;;;;;;;2.39;77.98;101917.53;5067130;28;20040;-66
2024/01/23 08:25:53;;;;;;;4.30;1.05;;;;;;;2.54;76.37;101916.97;5067674;28;20031;-67
2024/01/23 08:28:19;;;;;;;3.92;1.40;;;;;;;2.56;75.57;101917.75;5067615;28;20394;-66
2024/01/23 08:30:45;;;;;;;6.78;1.63;;;;;;;2.58;75.78;101910.81;5067471;28;20062;-67
2024/01/23 08:33:17;;;;;;;1.33;0.60;;;;;;;2.74;74.85;101911.94;5068270;28;20040;-67
2024/01/23 08:35:42;;;;;;;5.35;1.10;;;;;;;2.85;75.46;101922.63;5066927;28;20482;-66
2024/01/23 08:38:09;;;;;;;4.22;1.25;;;;;;;2.90;73.80;101920.69;5068438;28;20035;-66
2024/01/23 08:40:35;;;;;;;3.28;1.00;;;;;;;2.99;73.61;101928.06;5067435;28;20036;-67
2024/01/23 08:43:01;;;;;;;10.98;0.93;;;;;;;3.04;73.51;101921.91;5067473;28;20040;-66
2024/01/23 08:45:26;;;;;;;9.98;0.98;;;;;;;3.03;73.89;101918.50;5066674;28;20028;-66
2024/01/23 08:47:52;;;;;;;9.82;1.50;;;;;;;3.06;73.13;101926.09;5067533;28;20078;-66
2024/01/23 08:50:17;;;;;;;3.60;0.95;;;;;;;3.15;73.24;101936.03;5066971;28;20184;-66
2024/01/23 08:52:43;;;;;;;2.28;0.68;;;;;;;3.25;72.74;101941.66;5067622;28;20036;-67
2024/01/23 08:55:09;;;;;;;5.45;1.00;;;;;;;3.29;72.37;101954.34;5067550;28;20032;-66
2024/01/23 08:57:35;;;;;;;5.00;1.52;;;;;;;3.39;71.88;101948.81;5066530;28;20028;-66
2024/01/23 09:00:00;;;;;;;1.95;0.80;;;;;;;3.50;72.30;101944.91;5060793;28;20062;-66
2024/01/23 09:02:27;;;;;;;4.43;2.08;;;;;;;3.51;72.52;101946.56;5066571;28;20047;-66
2024/01/23 09:04:52;;;;;;;3.33;1.23;;;;;;;3.63;71.39;101938.34;5058956;28;20030;-65
2024/01/23 09:07:18;;;;;;;2.55;0.52;;;;;;;3.68;71.48;101935.56;5068394;28;20032;-65
2024/01/23 09:09:44;;;;;;;4.05;0.95;;;;;;;3.74;71.85;101944.78;5067976;28;20117;-65
2024/01/23 09:12:10;;;;;;;2.60;0.80;;;;;;;3.83;71.43;101959.84;5068362;28;20533;-65
2024/01/23 09:14:35;;;;;;;2.53;0.90;;;;;;;3.94;71.05;101958.50;5065221;28;20371;-65
2024/01/23 09:17:01;;;;;;;2.15;0.80;;;;;;;4.00;70.49;101947.91;5068537;28;20036;-66
2024/01/23 09:19:27;;;;;;;4.57;1.20;;;;;;;4.11;70.78;101949.19;5066637;28;20115;-66
2024/01/23 09:21:54;;;;;;;3.67;0.70;;;;;;;4.22;70.38;101947.81;5068099;28;20024;-66
2024/01/23 09:24:20;;;;;;;3.97;0.82;;;;;;;4.27;70.75;101930.38;5066526;28;20043;-67
2024/01/23 09:26:45;;;;;;;5.70;0.88;;;;;;;4.26;70.05;101922.69;5067757;28;20028;-66
2024/01/23 09:29:11;;;;;;;1.98;0.80;;;;;;;4.39;71.09;101923.00;5067776;28;20497;-66
2024/01/23 09:31:46;;;;;;;3.35;0.95;;;;;;;4.56;70.10;101915.31;5066953;28;20098;-66
2024/01/23 09:34:12;;;;;;;3.50;0.98;;;;;;;4.61;71.87;101898.72;5068628;28;20040;-66
2024/01/23 09:36:38;;;;;;;4.80;1.15;;;;;;;4.63;71.89;101894.31;5066329;28;20093;-65
2024/01/23 09:39:04;;;;;;;2.67;1.05;;;;;;;4.65;73.74;101902.00;5072883;28;20036;-64
2024/01/23 09:41:34;;;;;;;3.70;1.42;;;;;;;4.83;72.86;101900.28;5071723;28;20111;-66
2024/01/23 09:43:59;;;;;;;4.65;1.55;;;;;;;4.98;72.69;101905.56;5069044;28;20131;-66
2024/01/23 09:46:25;;;;;;;3.30;1.48;;;;;;;5.17;73.62;101904.66;5072653;28;20548;-66
2024/01/23 09:48:52;;;;;;;4.30;1.73;;;;;;;5.31;72.14;101915.16;5071054;28;20143;-66
2024/01/23 09:51:18;;;;;;;4.53;1.27;;;;;;;5.51;69.74;101921.91;5071790;28;20119;-66
2024/01/23 09:53:44;;;;;;;4.82;1.70;;;;;;;5.57;70.17;101916.44;5071387;28;20186;-66
2024/01/23 09:56:14;;;;;;;2.53;1.10;;;;;;;5.74;70.34;101900.88;5071735;28;20040;-66
2024/01/23 09:58:40;;;;;;;5.78;1.60;;;;;;;5.94;69.10;101902.50;5070141;28;20078;-66
2024/01/23 10:01:06;;;;;;;1.95;0.60;;;;;;;6.00;67.72;101909.94;5070156;28;20032;-66
2024/01/23 10:03:35;;;;;;;2.22;1.05;;;;;;;5.97;68.32;101904.91;5071519;28;20041;-66
2024/01/23 10:06:01;;;;;;;4.00;1.13;;;;;;;5.99;66.20;101921.19;5070506;28;20045;-67
2024/01/23 10:08:27;;;;;;;3.53;0.70;;;;;;;5.90;65.30;101926.84;5066401;28;20029;-66
2024/01/23 10:11:00;;;;;;;1.40;0.65;;;;;;;5.94;66.44;101924.03;5070577;28;20115;-66
2024/01/23 10:13:26;;;;;;;0.95;0.30;;;;;;;6.03;66.24;101922.72;5070106;28;20398;-66
2024/01/23 10:15:55;;;;;;;2.78;0.50;;;;;;;6.04;66.29;101914.03;5070305;28;20390;-67
2024/01/23 10:18:22;;;;;;;4.65;0.50;;;;;;;6.04;66.89;101895.94;5069385;28;20028;-66
2024/01/23 10:20:48;;;;;;;1.13;0.57;;;;;;;6.18;65.96;101890.00;5069929;28;20072;-67
2024/01/23 10:23:14;;;;;;;4.47;0.50;;;;;;;6.32;66.79;101890.94;5071041;28;20044;-67
2024/01/23 10:25:40;;;;;;;4.97;0.65;;;;;;;6.42;65.23;101880.94;5069334;28;20489;-67
2024/01/23 10:28:10;;;;;;;2.47;0.50;;;;;;;6.50;64.90;101868.41;5069992;28;20033;-66
2024/01/23 10:30:39;;;;;;;1.02;0.38;;;;;;;6.44;66.35;101862.72;5070552;28;20054;-66
2024/01/23 10:33:10;;;;;;;2.38;0.60;;;;;;;6.66;66.07;101847.66;5070741;28;20063;-66
2024/01/23 10:35:36;;;;;;;1.70;0.60;;;;;;;6.80;65.62;101842.53;5068619;28;20037;-67
2024/01/23 10:38:03;;;;;;;6.63;1.00;;;;;;;6.79;66.25;101837.44;5070195;28;20124;-67
2024/01/23 10:40:29;;;;;;;3.95;0.90;;;;;;;7.00;66.18;101838.81;5069709;28;20480;-66
2024/01/23 10:42:59;;;;;;;4.78;0.85;;;;;;;7.04;66.69;101834.28;5071294;28;20032;-66
2024/01/23 10:45:25;;;;;;;3.80;0.80;;;;;;;7.13;65.62;101839.75;5070008;28;20455;-65
2024/01/23 10:47:56;;;;;;;2.70;0.80;;;;;;;7.09;66.07;101853.00;5070538;28;20025;-68
2024/01/23 10:50:22;;;;;;;2.88;0.77;;;;;;;7.20;65.21;101851.44;5069725;28;20097;-65
2024/01/23 10:52:49;;;;;;;8.38;0.88;;;;;;;7.42;65.50;101851.03;5070041;28;20142;-66
2024/01/23 10:55:19;;;;;;;2.63;0.75;;;;;;;7.43;66.75;101844.09;5069133;28;20028;-66
2024/01/23 10:57:46;;;;;;;4.60;1.15;;;;;;;7.50;65.75;101855.78;5069637;28;20029;-66
2024/01/23 11:00:17;;;;;;;2.05;0.75;;;;;;;7.57;65.69;101860.47;5070480;28;20037;-66
2024/01/23 11:02:57;;;;;;;6.10;0.80;;;;;;;7.74;63.69;101859.47;5070277;28;20393;-66
2024/01/23 11:05:45;;;;;;;2.25;1.33;;;;;;;7.63;63.64;101849.75;5071247;28;20038;-66
2024/01/23 11:08:21;;;;;;;4.00;1.45;;;;;;;7.63;65.13;101848.91;5066904;28;20071;-66
2024/01/23 11:10:53;;;;;;;2.53;0.93;;;;;;;7.76;66.43;101851.59;5068136;28;20086;-66
2024/01/23 11:13:46;;;;;;;2.40;0.80;;;;;;;8.12;63.46;101838.94;5068794;28;20063;-66
2024/01/23 11:16:12;;;;;;;2.97;0.73;;;;;;;8.21;65.28;101827.16;5069687;28;20036;-66
2024/01/23 11:18:40;;;;;;;1.52;0.70;;;;;;;8.22;62.85;101837.47;5068638;28;20310;-66
2024/01/23 11:21:08;;;;;;;3.70;0.65;;;;;;;8.26;63.56;101840.69;5070583;28;20028;-66
2024/01/23 11:23:38;;;;;;;2.25;0.70;;;;;;;8.21;64.55;101833.19;5069269;28;20170;-66
2024/01/23 11:26:12;;;;;;;2.47;0.88;;;;;;;8.47;63.97;101843.75;5069465;28;20029;-66